Time;durP1;ratioP1;P1;durP2;ratioP2;P2;SDS_P1;SDS_P2;PMS_P1;PMS_P2;Temp;Humidity;BMP_temperature;BMP_pressure;BME280_temperature;BME280_humidity;BME280_pressure;Samples;Min_cycle;Max_cycle;Signal;HPM_P1;HPM_P2
2021/05/02 00:02:20;;;;;;;51.33;33.37;;;;;;;8.26;75.61;100270.66;5171403;54;1140901;-73
2021/05/02 00:07:26;;;;;;;46.28;31.68;;;;;;;8.25;75.82;100268.50;5150970;56;1147858;-76
2021/05/02 00:12:32;;;;;;;47.70;30.97;;;;;;;8.27;75.90;100260.02;5151196;56;1140713;-75
2021/05/02 00:17:40;;;;;;;48.38;31.02;;;;;;;8.28;75.81;100249.00;5148167;56;1140624;-74
2021/05/02 00:22:49;;;;;;;52.60;30.90;;;;;;;8.28;75.82;100245.89;5151020;56;1140603;-72
2021/05/02 00:27:56;;;;;;;46.13;30.50;;;;;;;8.27;75.80;100240.25;5151050;56;1140577;-73
2021/05/02 00:33:03;;;;;;;49.13;31.07;;;;;;;8.26;76.04;100222.77;5151006;56;1140659;-76
2021/05/02 00:38:10;;;;;;;47.97;30.23;;;;;;;8.20;76.11;100215.33;5151058;56;1140626;-76
2021/05/02 00:43:22;;;;;;;48.27;32.30;;;;;;;8.18;76.01;100191.36;5151232;56;1140519;-78
2021/05/02 00:48:45;;;;;;;40.80;27.47;;;;;;;8.09;76.21;100172.66;5151645;55;1140786;-76
2021/05/02 00:54:10;;;;;;;52.13;33.47;;;;;;;8.04;76.45;100177.41;5150926;56;1140567;-72
2021/05/02 00:59:22;;;;;;;51.70;33.17;;;;;;;8.08;76.47;100174.92;5151116;56;1140522;-73
2021/05/02 01:04:32;;;;;;;42.15;27.00;;;;;;;8.03;76.47;100170.45;5151707;56;1140573;-76
2021/05/02 01:09:37;;;;;;;49.75;29.55;;;;;;;7.99;76.67;100163.72;5151647;56;1141029;-71
2021/05/02 01:14:47;;;;;;;48.60;30.63;;;;;;;8.02;76.75;100158.71;5151369;56;1140782;-73
2021/05/02 01:19:55;;;;;;;44.90;31.23;;;;;;;8.02;76.72;100167.92;5151396;56;1140851;-73
2021/05/02 01:25:02;;;;;;;46.07;31.40;;;;;;;8.00;76.91;100143.02;5151933;54;1140726;-73
2021/05/02 01:30:11;;;;;;;42.10;27.50;;;;;;;8.02;76.90;100137.64;5151960;56;1140619;-75
2021/05/02 01:35:17;;;;;;;45.27;24.87;;;;;;;8.06;76.79;100148.33;5151612;55;1140902;-73
2021/05/02 01:40:24;;;;;;;39.67;24.70;;;;;;;8.00;76.95;100129.84;5167716;56;1140607;-76
2021/05/02 01:45:30;;;;;;;41.95;26.33;;;;;;;7.96;77.05;100118.33;5126797;56;1140602;-75
2021/05/02 01:50:49;;;;;;;43.90;28.17;;;;;;;7.96;77.15;100096.78;5151454;56;1140827;-77
2021/05/02 01:55:55;;;;;;;43.10;27.57;;;;;;;7.93;77.15;100089.14;5146230;56;1140636;-72
2021/05/02 02:01:17;;;;;;;41.87;26.87;;;;;;;7.91;77.27;100098.94;5151157;56;1140650;-72
2021/05/02 02:06:24;;;;;;;41.63;25.50;;;;;;;7.90;77.17;100080.14;5151113;56;1140559;-73
2021/05/02 02:11:31;;;;;;;38.17;24.12;;;;;;;7.85;77.46;100078.31;5151200;56;1140867;-75
2021/05/02 02:16:40;;;;;;;34.53;22.45;;;;;;;7.83;77.36;100075.42;5139388;56;1140801;-74
2021/05/02 02:21:50;;;;;;;39.43;23.67;;;;;;;7.78;77.32;100077.09;5138582;56;1140628;-75
2021/05/02 02:27:01;;;;;;;38.53;22.67;;;;;;;7.75;77.54;100062.84;5000680;57;1140883;-75
2021/05/02 02:32:11;;;;;;;42.77;21.53;;;;;;;7.76;77.40;100073.73;5138687;56;1140705;-73
2021/05/02 02:37:20;;;;;;;30.30;18.17;;;;;;;7.75;77.42;100057.09;5000682;57;1140645;-72
2021/05/02 02:42:28;;;;;;;32.53;19.60;;;;;;;7.73;77.42;100050.26;5138633;56;1140874;-76
2021/05/02 02:47:45;;;;;;;28.00;19.50;;;;;;;7.71;77.29;100045.10;5000895;57;1140506;-73
2021/05/02 02:52:53;;;;;;;27.13;16.83;;;;;;;7.72;77.29;100038.89;5098825;56;1140839;-75
2021/05/02 02:58:05;;;;;;;27.00;16.80;;;;;;;7.71;77.32;100033.25;5000714;57;1140410;-76
2021/05/02 03:03:14;;;;;;;23.60;15.30;;;;;;;7.73;77.22;100022.14;5138741;56;1140871;-75
2021/05/02 03:08:23;;;;;;;25.00;15.53;;;;;;;7.73;77.06;100016.87;5000898;57;1140865;-73
2021/05/02 03:13:29;;;;;;;23.23;15.53;;;;;;;7.70;77.14;100025.47;5138729;56;1140891;-72
2021/05/02 03:18:48;;;;;;;26.20;15.45;;;;;;;7.67;77.01;100027.00;5000659;57;1141160;-75
2021/05/02 03:23:57;;;;;;;26.67;15.80;;;;;;;7.63;76.93;100019.84;5138153;56;1140896;-71
2021/05/02 03:29:05;;;;;;;25.73;15.20;;;;;;;7.58;77.08;100032.95;5000609;57;1140713;-73
2021/05/02 03:34:12;;;;;;;20.40;14.87;;;;;;;7.62;77.10;100031.31;5138255;56;1140820;-78
2021/05/02 03:39:18;;;;;;;24.83;15.70;;;;;;;7.69;77.06;100022.47;5000607;57;1140789;-69
2021/05/02 03:44:24;;;;;;;24.17;12.87;;;;;;;7.68;76.91;100017.68;5138424;56;1140823;-75
2021/05/02 03:49:31;;;;;;;27.40;14.60;;;;;;;7.70;76.94;100014.47;5000615;57;1140873;-70
2021/05/02 03:54:37;;;;;;;19.27;12.50;;;;;;;7.69;76.95;100002.73;5138414;56;1140974;-73
2021/05/02 03:59:43;;;;;;;24.67;13.25;;;;;;;7.65;76.60;99994.22;5000594;57;1140871;-76
2021/05/02 04:04:48;;;;;;;17.63;12.97;;;;;;;7.64;76.55;99985.11;5138524;56;1139040;-75
2021/05/02 04:09:54;;;;;;;22.93;13.27;;;;;;;7.59;76.74;99988.58;5000622;57;1138618;-76
2021/05/02 04:14:59;;;;;;;15.77;8.47;;;;;;;7.60;76.81;99975.79;5138226;56;1138561;-77
2021/05/02 04:20:07;;;;;;;16.43;11.50;;;;;;;7.64;76.77;99973.27;5150409;56;1136576;-69
2021/05/02 04:25:13;;;;;;;18.83;12.47;;;;;;;7.57;76.98;99961.06;5150581;56;1138900;-73
2021/05/02 04:30:19;;;;;;;13.00;8.77;;;;;;;7.56;77.07;99969.06;5150828;56;1138422;-70
2021/05/02 04:35:24;;;;;;;20.77;13.60;;;;;;;7.59;77.02;99957.84;5151018;56;1136452;-73
2021/05/02 04:40:30;;;;;;;18.48;11.90;;;;;;;7.55;77.29;99947.17;5151169;56;1138719;-74
2021/05/02 04:45:36;;;;;;;23.15;14.55;;;;;;;7.51;77.26;99939.61;5151468;56;1138752;-71
2021/05/02 04:50:42;;;;;;;19.80;11.87;;;;;;;7.43;77.24;99936.72;5151645;56;1138819;-70
2021/05/02 04:55:48;;;;;;;27.13;13.23;;;;;;;7.38;77.67;99930.00;5151404;56;1138786;-72
2021/05/02 05:00:54;;;;;;;18.77;12.67;;;;;;;7.33;77.89;99928.17;5151408;56;1138762;-74
2021/05/02 05:06:00;;;;;;;18.90;11.30;;;;;;;7.31;78.05;99925.32;5151408;56;1138849;-72
2021/05/02 05:11:06;;;;;;;19.07;11.90;;;;;;;7.33;78.25;99925.55;5151442;56;1138765;-75
2021/05/02 05:16:12;;;;;;;20.57;11.93;;;;;;;7.35;78.29;99923.64;5151556;56;1138823;-71
2021/05/02 05:21:17;;;;;;;20.33;13.10;;;;;;;7.31;78.40;99915.64;5151100;56;1138877;-70
2021/05/02 05:26:23;;;;;;;24.77;13.73;;;;;;;7.31;78.55;99908.22;5151444;56;1138782;-73
2021/05/02 05:31:29;;;;;;;27.20;20.27;;;;;;;7.29;78.71;99903.08;5151778;56;1140878;-71
2021/05/02 05:36:35;;;;;;;25.68;12.20;;;;;;;7.25;78.86;99893.72;5151695;56;1138827;-73
2021/05/02 05:41:41;;;;;;;18.45;10.98;;;;;;;7.23;79.21;99879.00;5151543;56;1138891;-73
2021/05/02 05:46:46;;;;;;;28.37;18.90;;;;;;;7.22;79.31;99874.22;5151643;56;1138800;-72
2021/05/02 05:51:53;;;;;;;20.73;12.83;;;;;;;7.22;79.64;99858.44;5151308;56;1138779;-70
2021/05/02 05:56:59;;;;;;;16.93;11.67;;;;;;;7.27;79.98;99854.16;5151540;55;1138527;-71
2021/05/02 06:02:04;;;;;;;36.03;21.27;;;;;;;7.26;80.25;99861.20;5151206;56;1138920;-73
2021/05/02 06:07:10;;;;;;;27.73;15.37;;;;;;;7.25;80.27;99868.73;5151238;56;1138440;-73
2021/05/02 06:12:16;;;;;;;21.60;13.53;;;;;;;7.29;80.44;99873.30;5150895;56;1138568;-72
2021/05/02 06:17:21;;;;;;;30.27;17.10;;;;;;;7.32;80.64;99877.86;5151492;56;1138745;-72
2021/05/02 06:22:27;;;;;;;30.90;17.03;;;;;;;7.33;81.08;99883.97;5141425;56;1138671;-72
2021/05/02 06:27:33;;;;;;;28.90;15.68;;;;;;;7.34;81.07;99889.55;5000841;57;1140880;-73
2021/05/02 06:32:38;;;;;;;19.42;11.28;;;;;;;7.39;81.35;99883.02;5138762;56;1138774;-71
2021/05/02 06:37:44;;;;;;;24.20;12.50;;;;;;;7.44;81.51;99897.15;5000360;57;1138816;-73
2021/05/02 06:42:50;;;;;;;22.90;13.13;;;;;;;7.44;81.52;99900.25;5137959;56;1139062;-71
2021/05/02 06:47:56;;;;;;;21.23;13.13;;;;;;;7.35;81.49;99895.19;4999742;57;1138730;-69
2021/05/02 06:53:01;;;;;;;14.17;10.60;;;;;;;7.34;81.55;99881.66;5138401;55;1138745;-71
2021/05/02 06:58:08;;;;;;;18.23;9.50;;;;;;;7.30;82.06;99875.82;5034800;57;1138633;-74
2021/05/02 07:03:15;;;;;;;23.40;10.23;;;;;;;7.24;82.43;99873.63;5200720;55;1136463;-73
2021/05/02 07:08:25;;;;;;;24.43;12.17;;;;;;;7.14;83.11;99862.59;5042388;57;1138903;-70
2021/05/02 07:13:41;;;;;;;21.97;11.47;;;;;;;7.05;83.22;99853.11;5018725;57;1138661;-71
2021/05/02 07:18:48;;;;;;;22.23;11.57;;;;;;;7.06;83.58;99848.69;4996857;57;1138708;-75
2021/05/02 07:23:54;;;;;;;20.17;10.63;;;;;;;7.05;84.10;99838.64;5004979;57;1138813;-73
2021/05/02 07:29:00;;;;;;;21.60;11.90;;;;;;;6.98;84.20;99823.45;4997095;57;1138622;-72
2021/05/02 07:34:06;;;;;;;24.12;12.40;;;;;;;6.99;84.24;99809.36;5009604;57;1138538;-72
2021/05/02 07:39:11;;;;;;;20.17;9.77;;;;;;;6.97;84.28;99801.58;5009694;57;1138466;-76
2021/05/02 07:44:17;;;;;;;29.33;11.60;;;;;;;6.98;84.51;99790.11;5009720;57;1136422;-70
2021/05/02 07:49:23;;;;;;;28.83;13.03;;;;;;;6.98;84.96;99782.70;5010029;57;1138852;-75
2021/05/02 07:54:29;;;;;;;19.77;11.57;;;;;;;6.88;84.55;99777.27;5009803;57;1139022;-76
2021/05/02 07:59:38;;;;;;;27.32;16.00;;;;;;;6.88;84.64;99765.44;5015597;57;1138815;-74
2021/05/02 08:04:42;;;;;;;17.80;7.25;;;;;;;6.88;84.96;99760.66;4995918;57;1138978;-72
2021/05/02 08:09:48;;;;;;;17.62;9.35;;;;;;;6.88;85.08;99760.66;5010341;57;1136709;-75
2021/05/02 08:14:53;;;;;;;15.13;9.67;;;;;;;6.87;84.94;99748.50;5010903;57;1136724;-75
2021/05/02 08:19:59;;;;;;;18.10;11.63;;;;;;;6.90;84.94;99755.66;5010689;57;1136731;-74
2021/05/02 08:25:08;;;;;;;17.03;8.90;;;;;;;6.83;84.95;99746.56;4892070;58;1138818;-77
2021/05/02 08:30:14;;;;;;;18.40;9.50;;;;;;;6.82;85.07;99744.05;5139562;56;1136840;-73
2021/05/02 08:35:19;;;;;;;15.60;7.40;;;;;;;6.82;85.07;99744.05;5139624;56;1136700;-74
2021/05/02 08:40:25;;;;;;;11.37;8.00;;;;;;;6.81;85.65;99738.44;5139384;56;1136685;-72
2021/05/02 08:45:33;;;;;;;6.13;4.97;;;;;;;6.84;85.57;99739.52;5139524;56;1136695;-73
2021/05/02 08:50:39;;;;;;;13.20;8.20;;;;;;;6.82;86.33;99726.97;5139895;56;1134614;-73
2021/05/02 08:55:46;;;;;;;15.93;8.98;;;;;;;6.76;85.89;99728.73;5139465;56;1136745;-74
2021/05/02 09:00:54;;;;;;;12.10;7.25;;;;;;;6.68;86.63;99720.95;5139115;56;1136946;-74
2021/05/02 09:06:00;;;;;;;11.67;6.43;;;;;;;6.65;86.42;99709.35;5139335;56;1136673;-72
2021/05/02 09:11:05;;;;;;;7.90;5.30;;;;;;;6.70;86.56;99698.51;5139007;56;1136798;-73
2021/05/02 09:16:11;;;;;;;13.60;7.67;;;;;;;6.72;88.01;99693.98;5139138;56;1134538;-72
2021/05/02 09:21:29;;;;;;;12.70;7.43;;;;;;;6.70;87.36;99686.69;5151414;56;1136920;-72
2021/05/02 09:26:36;;;;;;;34.83;19.90;;;;;;;6.65;87.34;99679.14;5177684;56;1137826;-73
2021/05/02 09:31:43;;;;;;;15.10;9.33;;;;;;;6.62;87.37;99669.33;5183056;56;1141145;-72
2021/05/02 09:36:57;;;;;;;14.50;8.23;;;;;;;6.62;87.68;99662.75;5183563;56;1136683;-73
2021/05/02 09:42:21;;;;;;;17.27;9.03;;;;;;;6.61;87.68;99649.26;5183226;56;1136178;-72
2021/05/02 09:47:34;;;;;;;15.10;9.23;;;;;;;6.63;88.36;99639.47;5154075;56;1136445;-73
2021/05/02 09:53:05;;;;;;;15.17;8.00;;;;;;;6.64;87.89;99635.42;5106180;56;1136331;-73
2021/05/02 09:58:19;;;;;;;17.97;8.43;;;;;;;6.64;87.71;99628.02;5065030;56;1136750;-73
2021/05/02 10:03:28;;;;;;;11.60;5.90;;;;;;;6.66;87.81;99630.05;5070757;56;1136449;-72
2021/05/02 10:08:37;;;;;;;10.63;7.00;;;;;;;6.62;88.11;99625.98;5071167;56;1136467;-74
2021/05/02 10:13:48;;;;;;;23.07;10.68;;;;;;;6.59;88.95;99616.53;5040673;55;1136763;-73
2021/05/02 10:19:09;;;;;;;19.13;8.43;;;;;;;6.58;88.20;99614.85;4982750;57;1138741;-73
2021/05/02 10:24:24;;;;;;;15.70;7.63;;;;;;;6.58;88.33;99614.85;5078651;56;1136658;-74
2021/05/02 10:29:44;;;;;;;23.10;10.70;;;;;;;6.63;88.36;99614.52;5111029;56;1136837;-74
2021/05/02 10:35:06;;;;;;;20.23;11.27;;;;;;;6.58;87.87;99625.36;5002051;57;1138696;-74
2021/05/02 10:40:28;;;;;;;11.93;7.00;;;;;;;6.58;87.87;99625.36;5112950;56;1139228;-74
2021/05/02 10:50:55;;;;;;;16.00;7.70;;;;;;;6.54;88.27;99627.88;5111092;56;1138681;-74
2021/05/02 10:56:08;;;;;;;17.40;8.93;;;;;;;6.55;88.72;99633.50;5113127;56;1136879;-74
2021/05/02 11:01:27;;;;;;;13.93;8.18;;;;;;;6.57;88.58;99644.70;5113479;57;1136811;-75
2021/05/02 11:06:44;;;;;;;17.43;9.80;;;;;;;6.59;88.52;99653.78;5111497;56;1136583;-73
2021/05/02 11:11:53;;;;;;;5.85;4.20;;;;;;;6.61;88.50;99656.66;5114010;56;1137126;-73
2021/05/02 11:17:05;;;;;;;4.60;3.43;;;;;;;6.60;88.51;99669.44;5111192;56;1134897;-72
2021/05/02 11:22:12;;;;;;;9.83;5.85;;;;;;;6.62;88.43;99678.52;5111444;56;1134495;-73
2021/05/02 11:27:24;;;;;;;10.67;6.33;;;;;;;6.57;88.44;99682.80;5114931;56;1134642;-72
2021/05/02 11:32:37;;;;;;;9.23;5.77;;;;;;;6.59;88.51;99694.03;5142393;55;1136516;-73
2021/05/02 11:37:50;;;;;;;14.75;5.85;;;;;;;6.63;88.44;99694.17;5152182;56;1134624;-73
2021/05/02 11:43:21;;;;;;;6.65;4.17;;;;;;;6.65;88.47;99703.26;5151439;56;1136661;-74
2021/05/02 11:48:27;;;;;;;9.10;5.40;;;;;;;6.63;88.41;99709.09;5150532;56;1134338;-73
2021/05/02 11:53:46;;;;;;;4.70;3.03;;;;;;;6.57;88.28;99724.02;5151741;56;1134599;-73
2021/05/02 11:58:57;;;;;;;18.67;8.13;;;;;;;6.57;88.53;99734.53;5151652;56;1134366;-73
2021/05/02 12:04:09;;;;;;;10.80;6.03;;;;;;;6.59;88.42;99740.48;5151586;56;1136371;-73
2021/05/02 12:09:18;;;;;;;13.03;4.73;;;;;;;6.57;88.68;99744.53;5151580;56;1136365;-73
2021/05/02 12:14:29;;;;;;;49.17;15.43;;;;;;;6.47;88.35;99748.80;5151672;56;1136293;-73
2021/05/02 12:19:40;;;;;;;14.30;5.03;;;;;;;6.39;88.36;99762.13;5151343;56;1138553;-73
2021/05/02 12:24:54;;;;;;;58.00;15.70;;;;;;;6.38;89.12;99774.90;5170206;56;1136897;-73
2021/05/02 12:30:04;;;;;;;35.55;8.20;;;;;;;6.34;88.52;99782.15;5141816;56;1139179;-73
2021/05/02 12:35:13;;;;;;;21.12;7.60;;;;;;;6.31;88.81;99788.92;4897912;59;1136737;-73
2021/05/02 12:40:18;;;;;;;11.77;5.07;;;;;;;6.29;88.42;99802.16;4897549;59;1136740;-73
2021/05/02 12:45:24;;;;;;;27.40;8.97;;;;;;;6.24;88.39;99801.67;4897501;59;1136677;-73
2021/05/02 12:50:34;;;;;;;12.17;5.17;;;;;;;6.14;89.25;99809.81;4865710;59;1136672;-73
2021/05/02 12:55:43;;;;;;;6.42;4.05;;;;;;;5.98;88.85;99834.98;4899889;59;1136749;-75
2021/05/02 13:00:57;;;;;;;11.83;5.72;;;;;;;5.98;88.85;99834.98;4884187;59;1134532;-73
2021/05/02 13:06:14;;;;;;;12.73;5.10;;;;;;;5.94;88.65;99831.39;5031280;56;1136445;-73
2021/05/02 13:11:41;;;;;;;11.40;4.43;;;;;;;5.89;88.73;99847.92;5150237;56;1136621;-72
2021/05/02 13:16:49;;;;;;;12.40;5.60;;;;;;;5.81;88.56;99849.71;5050618;57;1136655;-73
2021/05/02 13:22:14;;;;;;;4.53;3.08;;;;;;;5.79;88.72;99852.94;5051778;57;1136575;-73
2021/05/02 13:27:50;;;;;;;6.87;3.80;;;;;;;5.70;89.46;99869.29;5051764;57;1134415;-73
2021/05/02 13:33:12;;;;;;;6.20;3.70;;;;;;;5.59;88.85;99874.43;4945598;58;1134799;-73
2021/05/02 13:38:20;;;;;;;3.63;3.33;;;;;;;5.50;89.07;99885.55;4924459;58;1134378;-73
2021/05/02 13:43:26;;;;;;;5.13;3.83;;;;;;;5.47;89.13;99897.55;4924379;58;1134616;-72
2021/05/02 13:48:33;;;;;;;3.27;2.47;;;;;;;5.41;88.93;99898.78;4924067;58;1134501;-73
2021/05/02 13:53:39;;;;;;;2.57;1.70;;;;;;;5.32;88.80;99916.92;4887702;58;1134362;-73
2021/05/02 13:58:46;;;;;;;33.47;12.67;;;;;;;5.20;88.50;99926.39;4856803;59;1134619;-74
2021/05/02 14:03:53;;;;;;;29.77;9.30;;;;;;;5.11;88.44;99946.66;4836996;59;1138844;-72
2021/05/02 14:08:59;;;;;;;16.48;8.70;;;;;;;5.03;88.51;99955.03;4960490;58;1136587;-73
2021/05/02 14:14:05;;;;;;;37.50;14.13;;;;;;;4.99;88.62;99963.17;4994451;57;1136464;-73
2021/05/02 14:19:10;;;;;;;16.40;6.37;;;;;;;4.90;89.05;99965.42;4994025;57;1138303;-73
2021/05/02 14:24:16;;;;;;;28.43;11.33;;;;;;;4.79;88.73;99984.91;4994268;57;1134603;-72
2021/05/02 14:29:22;;;;;;;13.50;5.97;;;;;;;4.68;88.71;99992.60;4993756;57;1136439;-74
2021/05/02 14:34:28;;;;;;;17.63;7.50;;;;;;;4.58;89.18;100000.66;5082588;56;1134277;-74
2021/05/02 14:39:36;;;;;;;11.63;6.50;;;;;;;4.56;89.14;100013.84;5128803;56;1136389;-74
2021/05/02 14:44:42;;;;;;;9.55;4.15;;;;;;;4.53;89.04;100011.41;5123710;56;1136667;-76
2021/05/02 14:49:51;;;;;;;10.67;5.70;;;;;;;4.55;89.21;100023.94;5112655;57;1134346;-74
2021/05/02 14:54:55;;;;;;;18.02;9.65;;;;;;;4.54;89.20;100017.02;5128154;57;1136857;-73
2021/05/02 15:00:01;;;;;;;60.50;31.57;;;;;;;4.60;89.20;100035.42;5128385;57;1138618;-73
2021/05/02 15:05:10;;;;;;;34.33;16.60;;;;;;;4.59;88.91;100046.38;5128146;57;1138748;-74
2021/05/02 15:10:16;;;;;;;44.17;28.17;;;;;;;4.59;89.34;100046.83;5127526;57;1138838;-72
2021/05/02 15:15:22;;;;;;;22.00;9.77;;;;;;;4.58;89.38;100060.39;4981479;57;1138872;-71
2021/05/02 15:20:28;;;;;;;44.48;22.60;;;;;;;4.65;89.57;100065.28;5128202;56;1136543;-73
2021/05/02 15:25:33;;;;;;;34.33;13.67;;;;;;;4.68;89.69;100079.50;5128116;57;1140575;-76
2021/05/02 15:30:48;;;;;;;13.53;6.33;;;;;;;4.71;89.72;100081.95;5128041;56;1140501;-74
2021/05/02 15:35:55;;;;;;;10.53;6.43;;;;;;;4.74;89.68;100079.11;5111295;56;1136473;-73
2021/05/02 15:41:00;;;;;;;6.50;3.97;;;;;;;4.72;89.66;100091.49;5101534;56;1136647;-75
2021/05/02 15:46:06;;;;;;;9.77;4.07;;;;;;;4.67;89.98;100099.61;5152141;56;1134599;-74
2021/05/02 15:51:13;;;;;;;5.57;3.37;;;;;;;4.73;89.63;100105.81;5151061;56;1136456;-73
2021/05/02 15:56:19;;;;;;;6.50;3.10;;;;;;;4.77;89.74;100111.22;5147600;56;1136882;-71
2021/05/02 16:01:25;;;;;;;9.20;5.67;;;;;;;4.74;89.28;100111.86;5151358;56;1136908;-74
2021/05/02 16:06:31;;;;;;;11.67;5.83;;;;;;;4.70;89.22;100111.69;5151502;56;1137061;-69
2021/05/02 16:11:36;;;;;;;9.20;3.07;;;;;;;4.72;89.18;100113.76;5150441;56;1138904;-74
2021/05/02 16:16:44;;;;;;;2.60;2.40;;;;;;;4.73;89.39;100119.38;5171706;56;1136709;-72
2021/05/02 16:21:49;;;;;;;9.30;3.83;;;;;;;4.75;89.56;100120.94;4920058;58;1146239;-72
2021/05/02 16:26:55;;;;;;;2.55;2.35;;;;;;;4.76;89.32;100127.02;5014467;57;1136731;-78
2021/05/02 16:32:01;;;;;;;6.00;3.90;;;;;;;4.78;89.60;100134.33;5014581;57;1136665;-79
2021/05/02 16:37:06;;;;;;;5.20;3.23;;;;;;;4.77;89.33;100141.34;5012811;57;1136750;-72
2021/05/02 16:42:12;;;;;;;2.27;2.13;;;;;;;4.79;89.31;100148.65;5011084;57;1136724;-73
2021/05/02 16:47:18;;;;;;;5.37;3.20;;;;;;;4.83;89.39;100151.47;5010874;57;1136746;-73
2021/05/02 16:52:23;;;;;;;4.90;3.03;;;;;;;4.85;89.26;100154.84;5010182;57;1136789;-74
2021/05/02 16:57:30;;;;;;;4.23;3.60;;;;;;;4.86;89.19;100160.93;5010769;57;1137138;-77
2021/05/02 17:02:35;;;;;;;60.10;31.90;;;;;;;4.87;89.44;100162.16;5010445;57;1136900;-76
2021/05/02 17:07:47;;;;;;;12.37;9.90;;;;;;;4.91;89.57;100164.09;5010176;57;1140805;-72
2021/05/02 17:12:52;;;;;;;23.67;16.60;;;;;;;4.94;89.42;100175.71;4976964;57;1139035;-76
2021/05/02 17:17:58;;;;;;;8.65;6.35;;;;;;;5.00;89.37;100175.36;4852770;59;1140870;-75
2021/05/02 17:23:04;;;;;;;6.37;4.03;;;;;;;5.02;89.22;100190.99;4930613;58;1136700;-75
2021/05/02 17:28:09;;;;;;;9.33;4.57;;;;;;;5.05;89.10;100196.87;4853059;59;1136939;-76
2021/05/02 17:33:15;;;;;;;6.30;5.43;;;;;;;5.02;89.12;100204.94;4852825;59;1136745;-75
2021/05/02 17:38:21;;;;;;;5.80;4.43;;;;;;;4.91;88.86;100209.95;4912137;58;1136835;-76
2021/05/02 17:43:27;;;;;;;6.77;6.07;;;;;;;4.84;89.10;100218.66;5007064;58;1136732;-77
2021/05/02 17:48:32;;;;;;;8.45;5.90;;;;;;;4.78;88.93;100222.94;5089511;56;1136903;-74
2021/05/02 17:53:38;;;;;;;9.60;6.90;;;;;;;4.82;88.96;100239.33;4934744;58;1137130;-76
2021/05/02 17:58:47;;;;;;;9.73;6.47;;;;;;;4.85;89.03;100237.84;5007000;58;1136817;-73
2021/05/02 18:03:53;;;;;;;14.77;8.33;;;;;;;4.85;88.81;100250.48;5007180;58;1139477;-74
2021/05/02 18:08:58;;;;;;;12.13;7.17;;;;;;;4.83;88.69;100251.03;5006907;58;1138848;-75
2021/05/02 18:14:05;;;;;;;16.40;9.30;;;;;;;4.77;88.71;100258.39;5006750;58;1138797;-79
2021/05/02 18:19:11;;;;;;;13.03;6.33;;;;;;;4.79;88.76;100276.18;5003199;57;1139036;-75
2021/05/02 18:24:20;;;;;;;12.23;6.10;;;;;;;4.80;88.71;100287.04;4926590;58;1138767;-74
2021/05/02 18:29:24;;;;;;;5.77;3.60;;;;;;;4.81;88.74;100283.02;4926334;58;1138569;-75
2021/05/02 18:34:30;;;;;;;7.20;3.93;;;;;;;4.82;88.82;100282.56;4922424;58;1136500;-74
2021/05/02 18:39:38;;;;;;;10.50;5.27;;;;;;;4.77;88.63;100297.69;5008560;57;1136698;-74
2021/05/02 18:44:45;;;;;;;5.53;4.03;;;;;;;4.79;88.68;100305.84;5145734;56;1139030;-75
2021/05/02 18:49:50;;;;;;;11.63;5.70;;;;;;;4.80;88.54;100304.06;5150906;56;1136892;-76
2021/05/02 18:54:56;;;;;;;8.00;4.33;;;;;;;4.77;88.53;100303.77;5150829;56;1138729;-75
2021/05/02 19:00:01;;;;;;;9.78;3.92;;;;;;;4.78;88.66;100315.95;5151287;56;1136651;-75
2021/05/02 19:05:07;;;;;;;11.53;4.50;;;;;;;4.80;88.67;100323.72;5119413;56;1136695;-75
2021/05/02 19:10:13;;;;;;;8.87;4.73;;;;;;;4.81;88.78;100326.25;5098595;56;1138555;-76
2021/05/02 19:15:20;;;;;;;18.43;5.63;;;;;;;4.83;88.70;100337.96;5101379;56;1136317;-75
2021/05/02 19:20:25;;;;;;;12.67;4.80;;;;;;;4.80;88.59;100344.67;5100803;56;1138394;-76
2021/05/02 19:25:31;;;;;;;6.17;3.30;;;;;;;4.77;88.53;100354.02;5100793;56;1138287;-73
2021/05/02 19:30:38;;;;;;;8.87;4.50;;;;;;;4.75;88.84;100356.72;5101618;56;1134151;-75
2021/05/02 19:35:44;;;;;;;8.73;5.07;;;;;;;4.70;89.15;100360.08;5101183;56;1136227;-72
2021/05/02 19:40:51;;;;;;;5.43;3.70;;;;;;;4.69;88.93;100373.27;5101391;56;1144491;-70
2021/05/02 19:45:56;;;;;;;5.23;3.20;;;;;;;4.66;88.92;100370.34;5101203;56;1136177;-74
2021/05/02 19:51:02;;;;;;;6.70;4.03;;;;;;;4.69;88.98;100388.98;5101580;56;1136377;-72
2021/05/02 19:56:07;;;;;;;3.80;2.83;;;;;;;4.70;88.80;100385.43;5100576;56;1136181;-74
2021/05/02 20:01:15;;;;;;;21.10;9.97;;;;;;;4.71;88.88;100385.35;5033362;56;1136218;-73
2021/05/02 20:06:20;;;;;;;10.33;5.57;;;;;;;4.74;88.77;100385.16;5057023;56;1138314;-72
2021/05/02 20:11:27;;;;;;;7.17;3.87;;;;;;;4.78;88.75;100384.52;5013304;57;1136265;-72
2021/05/02 20:16:33;;;;;;;15.43;6.27;;;;;;;4.80;88.58;100381.36;5013353;57;1136386;-73
2021/05/02 20:21:39;;;;;;;25.67;9.07;;;;;;;4.82;88.39;100388.67;5013289;57;1138238;-72
2021/05/02 20:26:45;;;;;;;15.80;6.03;;;;;;;4.82;88.45;100390.83;5013719;57;1138423;-70
2021/05/02 20:31:51;;;;;;;28.23;11.37;;;;;;;4.83;88.24;100391.20;5013872;57;1138594;-71
2021/05/02 20:36:58;;;;;;;51.65;18.05;;;;;;;4.84;88.09;100392.05;5013755;57;1140702;-74
2021/05/02 20:42:04;;;;;;;13.55;7.45;;;;;;;4.84;88.09;100392.05;5020673;57;1138618;-73
2021/05/02 20:47:09;;;;;;;5.13;3.50;;;;;;;4.83;88.02;100391.67;5063883;57;1138652;-70
2021/05/02 20:52:15;;;;;;;4.10;2.90;;;;;;;4.81;87.91;100394.84;5064488;56;1136552;-72
2021/05/02 20:57:21;;;;;;;5.20;3.43;;;;;;;4.83;88.00;100400.38;5064384;57;1136328;-74
2021/05/02 21:02:26;;;;;;;4.73;3.40;;;;;;;4.81;88.04;100401.39;5064412;57;1134090;-72
2021/05/02 21:07:32;;;;;;;8.03;3.77;;;;;;;4.80;87.92;100403.63;5064351;57;1136131;-72
2021/05/02 21:12:38;;;;;;;8.87;4.17;;;;;;;4.78;87.93;100396.31;5064313;57;1136179;-71
2021/05/02 21:17:44;;;;;;;6.20;3.57;;;;;;;4.76;87.95;100406.87;5064826;57;1134114;-69
2021/05/02 21:22:50;;;;;;;6.20;4.80;;;;;;;4.78;87.97;100391.08;5065176;57;1136475;-73
2021/05/02 21:27:57;;;;;;;8.80;4.85;;;;;;;4.81;87.92;100397.00;5065045;57;1136194;-72
2021/05/02 21:33:03;;;;;;;6.90;3.65;;;;;;;4.83;88.11;100398.22;5085096;56;1134620;-71
2021/05/02 21:38:09;;;;;;;9.83;3.83;;;;;;;4.85;87.82;100402.92;5153970;56;1136303;-72
2021/05/02 21:43:15;;;;;;;7.63;4.60;;;;;;;4.85;87.66;100406.84;5151503;56;1136347;-72
2021/05/02 21:48:21;;;;;;;10.97;4.97;;;;;;;4.88;87.72;100415.86;5092514;56;1136313;-71
2021/05/02 21:53:27;;;;;;;14.57;7.23;;;;;;;4.93;88.03;100417.27;5092518;56;1136383;-72
2021/05/02 21:58:33;;;;;;;21.87;9.17;;;;;;;4.92;87.66;100415.58;5092496;56;1136393;-71
2021/05/02 22:03:39;;;;;;;7.90;4.67;;;;;;;4.94;87.39;100420.27;5092178;56;1138381;-69
2021/05/02 22:08:45;;;;;;;5.90;3.37;;;;;;;4.90;87.18;100418.74;5092589;56;1136178;-72
2021/05/02 22:13:51;;;;;;;4.47;3.40;;;;;;;4.81;87.33;100420.58;5092903;56;1134114;-72
2021/05/02 22:18:57;;;;;;;6.42;3.52;;;;;;;4.76;87.32;100431.77;5092896;56;1136460;-71
2021/05/02 22:24:03;;;;;;;6.30;4.13;;;;;;;4.74;87.36;100435.39;5092601;56;1136385;-73
2021/05/02 22:29:09;;;;;;;4.80;3.20;;;;;;;4.79;87.64;100438.62;5092484;56;1136601;-73
2021/05/02 22:34:14;;;;;;;9.47;4.37;;;;;;;4.81;87.54;100442.84;5092591;56;1134342;-73
2021/05/02 22:39:20;;;;;;;6.73;3.93;;;;;;;4.80;87.52;100444.23;5092857;56;1134305;-70
2021/05/02 22:44:25;;;;;;;5.47;3.90;;;;;;;4.78;87.25;100447.41;5092374;56;1136359;-73
2021/05/02 22:49:31;;;;;;;9.23;4.40;;;;;;;4.72;87.29;100436.81;5151046;56;1136588;-73
2021/05/02 22:54:37;;;;;;;8.57;5.50;;;;;;;4.71;87.33;100441.67;5153582;56;1136200;-72
2021/05/02 22:59:42;;;;;;;9.58;5.40;;;;;;;4.71;87.46;100442.14;5153666;56;1134077;-70
2021/05/02 23:04:48;;;;;;;12.50;5.23;;;;;;;4.80;87.57;100440.31;5153595;56;1136216;-72
2021/05/02 23:09:56;;;;;;;7.23;4.53;;;;;;;4.85;87.33;100444.37;5153970;56;1139646;-70
2021/05/02 23:15:02;;;;;;;5.08;3.95;;;;;;;4.84;87.37;100449.23;5154046;56;1134167;-71
2021/05/02 23:20:09;;;;;;;11.03;5.50;;;;;;;4.80;87.25;100449.48;5153906;56;1134225;-72
2021/05/02 23:25:15;;;;;;;9.70;5.30;;;;;;;4.76;87.02;100446.64;5153137;56;1138460;-74
2021/05/02 23:30:23;;;;;;;15.93;5.37;;;;;;;4.77;87.11;100445.71;5153579;56;1136202;-71